Portada
METAR-TAF:

METAR-TAF

Aeropuertos :

Meierwik

Glücksburg, Alemania

latitud: 54-50N, longitud: 009-30E, altitud: 27 m

Observación

El informe se hizo hace 47 minutos, a las 12:20 UTC
Viento 15 kt del oeste
Temperatura 7°C
Humedad 87%
Presión 1042 hPa

METAR: ETGG 201220Z AUTO 26015KT //// // ////// 07/05 Q1042 ///

Hora: 14:07 (13:07 UTC)


TAF: falta

Observaciones y pronósticos meteorológicos de más de 4000 aeropuertos (mensajes METAR y TAF).

Los puntos amarillos y rojos representan las estaciones disponibles.

Ponga el ratón en el punto deseado para ver el nombre de la estación.

Haga clic para ver las observaciones y los pronósticos meteorológicos.

Para cambiar el mapa : haga clic en los botones verdes con una cruz de color negro para hacer un zoom, en el botón verde con un guión para alejar o en las flechas verdes para mapas adyacentes.


METAR-TAF: